Time;durP1;ratioP1;P1;durP2;ratioP2;P2;SDS_P1;SDS_P2;PMS_P1;PMS_P2;Temp;Humidity;BMP_temperature;BMP_pressure;BME280_temperature;BME280_humidity;BME280_pressure;Samples;Min_cycle;Max_cycle;Signal;HPM_P1;HPM_P2
2023/02/10 00:00:25;;;;;;;1.02;0.40;;;;;;;;;;4146725;28;20054;-35
2023/02/10 00:02:28;;;;;;;0.90;0.57;;;;;;;;;;4147019;28;20057;-34
2023/02/10 00:04:30;;;;;;;0.43;0.30;;;;;;;;;;4146309;28;20503;-34
2023/02/10 00:06:31;;;;;;;0.95;0.28;;;;;;;;;;4129720;28;20120;-37
2023/02/10 00:08:33;;;;;;;0.55;0.30;;;;;;;;;;4146762;28;20057;-34
2023/02/10 00:10:35;;;;;;;0.40;0.35;;;;;;;;;;4146860;28;20050;-34
2023/02/10 00:12:37;;;;;;;0.70;0.40;;;;;;;;;;4146540;28;20416;-34
2023/02/10 00:14:39;;;;;;;0.95;0.50;;;;;;;;;;4146821;28;20089;-34
2023/02/10 00:16:40;;;;;;;0.40;0.30;;;;;;;;;;4146719;28;20057;-34
2023/02/10 00:18:42;;;;;;;0.60;0.50;;;;;;;;;;4146004;28;20068;-36
2023/02/10 00:20:43;;;;;;;0.52;0.32;;;;;;;;;;4146729;28;20057;-35
2023/02/10 00:22:44;;;;;;;1.25;0.60;;;;;;;;;;4146671;28;20050;-34
2023/02/10 00:24:46;;;;;;;2.28;0.32;;;;;;;;;;4146695;28;20460;-34
2023/02/10 00:26:48;;;;;;;1.33;0.28;;;;;;;;;;4128988;28;20391;-34
2023/02/10 00:28:49;;;;;;;2.20;0.40;;;;;;;;;;4146611;28;20061;-34
2023/02/10 00:30:50;;;;;;;0.60;0.30;;;;;;;;;;4146680;28;20100;-34
2023/02/10 00:32:52;;;;;;;0.40;0.20;;;;;;;;;;4129158;28;20526;-36
2023/02/10 00:34:53;;;;;;;0.40;0.30;;;;;;;;;;4146112;28;20045;-34
2023/02/10 00:36:55;;;;;;;0.30;0.30;;;;;;;;;;4146654;28;20061;-34
2023/02/10 00:38:56;;;;;;;0.32;0.20;;;;;;;;;;4146473;28;20058;-34
2023/02/10 00:41:04;;;;;;;0.57;0.20;;;;;;;;;;4147052;28;20096;-34
2023/02/10 00:43:05;;;;;;;0.55;0.20;;;;;;;;;;4126285;28;20054;-34
2023/02/10 00:45:07;;;;;;;0.52;0.30;;;;;;;;;;4116442;28;20506;-33
2023/02/10 00:47:09;;;;;;;0.25;0.10;;;;;;;;;;4145393;28;20472;-36
2023/02/10 00:49:12;;;;;;;0.40;0.20;;;;;;;;;;4128892;28;20050;-33
2023/02/10 00:51:14;;;;;;;0.80;0.30;;;;;;;;;;4146382;28;20390;-35
2023/02/10 00:53:15;;;;;;;0.30;0.20;;;;;;;;;;4128370;28;20057;-35
2023/02/10 00:55:16;;;;;;;1.67;0.20;;;;;;;;;;4146523;28;20508;-34
2023/02/10 00:57:18;;;;;;;0.40;0.38;;;;;;;;;;4146734;28;20057;-34
2023/02/10 00:59:19;;;;;;;0.73;0.25;;;;;;;;;;4129060;28;20059;-35
2023/02/10 01:01:21;;;;;;;0.20;0.20;;;;;;;;;;4145956;28;20061;-35
2023/02/10 01:03:22;;;;;;;1.55;0.40;;;;;;;;;;4145013;28;20100;-34
2023/02/10 01:05:23;;;;;;;0.70;0.20;;;;;;;;;;4146453;28;20057;-34
2023/02/10 01:07:24;;;;;;;2.47;0.40;;;;;;;;;;4129388;28;20055;-34
2023/02/10 01:09:27;;;;;;;0.75;0.32;;;;;;;;;;4128559;28;20097;-33
2023/02/10 01:11:28;;;;;;;2.50;0.30;;;;;;;;;;4146277;28;20054;-36
2023/02/10 01:13:30;;;;;;;1.17;0.20;;;;;;;;;;4146061;28;20129;-36
2023/02/10 01:15:32;;;;;;;0.20;0.20;;;;;;;;;;4146519;28;20080;-34
2023/02/10 01:17:34;;;;;;;0.50;0.20;;;;;;;;;;4112804;28;20054;-33
2023/02/10 01:19:35;;;;;;;0.63;0.20;;;;;;;;;;4128499;28;20121;-33
2023/02/10 01:21:38;;;;;;;0.43;0.10;;;;;;;;;;4146130;28;20398;-33
2023/02/10 01:23:40;;;;;;;0.32;0.17;;;;;;;;;;4146461;28;20062;-34
2023/02/10 01:25:41;;;;;;;0.15;0.15;;;;;;;;;;4128825;28;20050;-34
2023/02/10 01:27:44;;;;;;;0.10;0.10;;;;;;;;;;4146623;28;20054;-33
2023/02/10 01:29:46;;;;;;;1.23;0.20;;;;;;;;;;4131699;28;20560;-34
2023/02/10 01:31:47;;;;;;;0.38;0.10;;;;;;;;;;4131922;28;20093;-33
2023/02/10 01:33:52;;;;;;;0.30;0.20;;;;;;;;;;4148808;28;20494;-33
2023/02/10 01:35:54;;;;;;;0.30;0.20;;;;;;;;;;4148764;28;20104;-35
2023/02/10 01:37:55;;;;;;;0.93;0.30;;;;;;;;;;4131718;28;20458;-35
2023/02/10 01:39:56;;;;;;;0.20;0.20;;;;;;;;;;4115723;28;20069;-33
2023/02/10 01:41:58;;;;;;;0.93;0.32;;;;;;;;;;4131819;28;20054;-36
2023/02/10 01:44:25;;;;;;;1.45;0.20;;;;;;;;;;4148550;28;20455;-33
2023/02/10 01:46:35;;;;;;;0.20;0.20;;;;;;;;;;4148909;28;20058;-35
2023/02/10 01:48:37;;;;;;;1.00;0.15;;;;;;;;;;4148348;28;20050;-34
2023/02/10 01:50:51;;;;;;;0.43;0.10;;;;;;;;;;4148438;28;20054;-34
2023/02/10 01:52:53;;;;;;;0.65;0.20;;;;;;;;;;4148907;28;20061;-34
2023/02/10 01:55:09;;;;;;;1.20;0.30;;;;;;;;;;4131292;28;20506;-34
2023/02/10 01:57:11;;;;;;;0.20;0.13;;;;;;;;;;4131171;28;20472;-34
2023/02/10 01:59:14;;;;;;;0.28;0.20;;;;;;;;;;4115748;28;20055;-34
2023/02/10 02:01:17;;;;;;;0.65;0.20;;;;;;;;;;4148880;28;20448;-34
2023/02/10 02:03:18;;;;;;;0.20;0.20;;;;;;;;;;4147979;28;20069;-33
2023/02/10 02:05:22;;;;;;;0.20;0.20;;;;;;;;;;4130876;28;20054;-35
2023/02/10 02:07:28;;;;;;;0.35;0.20;;;;;;;;;;4148747;28;20489;-35
2023/02/10 02:09:29;;;;;;;0.30;0.10;;;;;;;;;;4131055;28;20097;-33
2023/02/10 02:12:08;;;;;;;0.43;0.20;;;;;;;;;;4140479;28;20051;-34
2023/02/10 02:14:24;;;;;;;1.02;0.17;;;;;;;;;;4130884;28;20058;-34
2023/02/10 02:16:36;;;;;;;0.30;0.28;;;;;;;;;;4131301;28;20054;-33
2023/02/10 02:18:49;;;;;;;0.88;0.20;;;;;;;;;;4129915;28;20437;-34
2023/02/10 02:21:23;;;;;;;0.20;0.20;;;;;;;;;;4125883;28;20137;-34
2023/02/10 02:23:27;;;;;;;0.20;0.10;;;;;;;;;;4146637;28;20046;-34
2023/02/10 02:25:51;;;;;;;0.30;0.20;;;;;;;;;;4130867;28;20050;-35
2023/02/10 02:28:14;;;;;;;0.35;0.13;;;;;;;;;;4100039;28;20055;-35
2023/02/10 02:30:51;;;;;;;0.10;0.10;;;;;;;;;;4147994;28;20564;-40
2023/02/10 02:32:55;;;;;;;0.17;0.10;;;;;;;;;;4131019;28;20061;-40
2023/02/10 02:35:02;;;;;;;0.30;0.10;;;;;;;;;;4113815;28;20107;-40
2023/02/10 02:37:06;;;;;;;0.50;0.25;;;;;;;;;;4136427;28;20096;-40
2023/02/10 02:39:08;;;;;;;0.43;0.20;;;;;;;;;;4144280;28;20057;-40
2023/02/10 02:41:10;;;;;;;0.30;0.20;;;;;;;;;;4147675;28;20061;-40
2023/02/10 02:43:11;;;;;;;0.13;0.10;;;;;;;;;;4130195;28;20124;-40
2023/02/10 02:45:40;;;;;;;0.75;0.20;;;;;;;;;;4147826;28;20054;-42
2023/02/10 02:47:50;;;;;;;0.17;0.10;;;;;;;;;;4130251;28;20051;-40
2023/02/10 02:50:13;;;;;;;0.13;0.13;;;;;;;;;;4117227;28;20502;-40
2023/02/10 02:52:21;;;;;;;0.50;0.30;;;;;;;;;;4130448;28;20109;-40
2023/02/10 02:54:31;;;;;;;0.10;0.10;;;;;;;;;;4130653;28;20129;-40
2023/02/10 02:57:10;;;;;;;1.27;0.10;;;;;;;;;;4135862;28;20355;-40
2023/02/10 02:59:30;;;;;;;0.47;0.10;;;;;;;;;;4130300;28;20109;-40
2023/02/10 03:01:36;;;;;;;0.77;0.20;;;;;;;;;;4135176;28;20058;-42
2023/02/10 03:03:38;;;;;;;0.10;0.10;;;;;;;;;;4129951;28;20498;-43
2023/02/10 03:05:42;;;;;;;0.20;0.10;;;;;;;;;;4147079;28;20497;-40
2023/02/10 03:07:43;;;;;;;0.28;0.10;;;;;;;;;;4147511;28;20104;-40
2023/02/10 03:09:45;;;;;;;0.15;0.10;;;;;;;;;;4147590;28;20490;-40
2023/02/10 03:11:46;;;;;;;0.43;0.20;;;;;;;;;;4147376;28;20085;-39
2023/02/10 03:13:48;;;;;;;0.43;0.20;;;;;;;;;;4113851;28;20442;-41
2023/02/10 03:15:49;;;;;;;0.35;0.15;;;;;;;;;;4147406;28;20054;-40
2023/02/10 03:17:51;;;;;;;1.27;0.20;;;;;;;;;;4147442;28;20058;-41
2023/02/10 03:19:52;;;;;;;0.13;0.10;;;;;;;;;;4147445;28;20115;-40
2023/02/10 03:21:54;;;;;;;1.08;0.10;;;;;;;;;;4147390;28;20054;-39
2023/02/10 03:23:55;;;;;;;0.10;0.10;;;;;;;;;;4147554;28;20108;-39
2023/02/10 03:25:59;;;;;;;0.10;0.10;;;;;;;;;;4147246;28;20061;-40
2023/02/10 03:28:01;;;;;;;0.25;0.10;;;;;;;;;;4147298;28;20053;-41
2023/02/10 03:30:02;;;;;;;1.17;0.17;;;;;;;;;;4129875;28;20564;-39
2023/02/10 03:32:05;;;;;;;0.85;0.20;;;;;;;;;;4147299;28;20064;-41
2023/02/10 03:34:06;;;;;;;2.85;0.10;;;;;;;;;;4146747;28;20050;-39
2023/02/10 03:36:07;;;;;;;0.20;0.20;;;;;;;;;;4147521;28;20054;-41
2023/02/10 03:38:09;;;;;;;0.43;0.10;;;;;;;;;;4147588;28;20058;-39
2023/02/10 03:40:11;;;;;;;0.88;0.30;;;;;;;;;;4147045;28;20058;-40
2023/02/10 03:42:12;;;;;;;0.15;0.10;;;;;;;;;;4147145;28;20058;-41
2023/02/10 03:44:14;;;;;;;0.10;0.10;;;;;;;;;;4146963;28;20518;-40
2023/02/10 03:46:16;;;;;;;0.20;0.10;;;;;;;;;;4147033;28;20057;-38
2023/02/10 03:48:17;;;;;;;0.85;0.13;;;;;;;;;;4146565;28;20065;-40
2023/02/10 03:50:18;;;;;;;0.98;0.20;;;;;;;;;;4129356;28;20089;-39
2023/02/10 03:52:20;;;;;;;0.30;0.17;;;;;;;;;;4146819;28;20456;-41
2023/02/10 03:54:21;;;;;;;0.40;0.10;;;;;;;;;;4146949;28;20058;-42
2023/02/10 03:56:22;;;;;;;0.68;0.20;;;;;;;;;;4147323;28;20100;-40
2023/02/10 03:58:24;;;;;;;0.00;0.00;;;;;;;;;;4129354;28;20050;-40
2023/02/10 04:00:26;;;;;;;0.95;0.20;;;;;;;;;;4145044;28;20415;-40
2023/02/10 04:02:27;;;;;;;0.47;0.17;;;;;;;;;;4129478;28;20579;-40
2023/02/10 04:04:29;;;;;;;0.45;0.10;;;;;;;;;;4146589;28;20050;-40
2023/02/10 04:06:30;;;;;;;1.08;0.17;;;;;;;;;;4147278;28;20045;-40
2023/02/10 04:08:32;;;;;;;0.90;0.20;;;;;;;;;;4146519;28;20058;-41
2023/02/10 04:10:33;;;;;;;0.10;0.10;;;;;;;;;;4146830;28;20050;-41
2023/02/10 04:12:35;;;;;;;0.90;0.17;;;;;;;;;;4146197;28;20482;-41
2023/02/10 04:14:36;;;;;;;0.70;0.10;;;;;;;;;;4146662;28;20251;-39
2023/02/10 04:16:38;;;;;;;1.27;0.15;;;;;;;;;;4146496;28;20054;-39
2023/02/10 04:18:39;;;;;;;1.65;0.20;;;;;;;;;;4146321;28;20071;-40
2023/02/10 04:20:41;;;;;;;0.15;0.10;;;;;;;;;;4129538;28;20054;-40
2023/02/10 04:22:42;;;;;;;0.17;0.10;;;;;;;;;;4146764;28;20100;-40
2023/02/10 04:24:44;;;;;;;1.55;0.20;;;;;;;;;;4146611;28;20053;-39
2023/02/10 04:26:45;;;;;;;0.68;0.30;;;;;;;;;;4133841;28;20116;-41
2023/02/10 04:28:47;;;;;;;1.27;0.25;;;;;;;;;;4146603;28;20064;-40
2023/02/10 04:30:56;;;;;;;0.43;0.10;;;;;;;;;;4146815;28;20100;-40
2023/02/10 04:32:58;;;;;;;0.17;0.17;;;;;;;;;;4146675;28;20085;-40
2023/02/10 04:35:00;;;;;;;0.20;0.10;;;;;;;;;;4133514;28;20053;-41
2023/02/10 04:37:01;;;;;;;0.52;0.10;;;;;;;;;;4146751;28;20103;-41
2023/02/10 04:39:03;;;;;;;1.08;0.22;;;;;;;;;;4146513;28;20058;-39
2023/02/10 04:41:04;;;;;;;0.30;0.20;;;;;;;;;;4146848;28;20100;-40
2023/02/10 04:43:06;;;;;;;0.60;0.10;;;;;;;;;;4146089;28;20456;-41
2023/02/10 04:45:07;;;;;;;2.90;0.20;;;;;;;;;;4146377;28;20054;-40
2023/02/10 04:47:08;;;;;;;0.10;0.10;;;;;;;;;;4146623;28;20054;-39
2023/02/10 04:49:10;;;;;;;0.10;0.00;;;;;;;;;;4146154;28;20057;-39
2023/02/10 04:51:12;;;;;;;0.52;0.10;;;;;;;;;;4146121;28;20058;-41
2023/02/10 04:53:14;;;;;;;0.57;0.30;;;;;;;;;;4146399;28;20418;-40
2023/02/10 04:55:15;;;;;;;0.70;0.10;;;;;;;;;;4146545;28;20054;-40
2023/02/10 04:57:16;;;;;;;0.00;0.00;;;;;;;;;;4113010;28;20478;-40
2023/02/10 04:59:17;;;;;;;0.00;0.00;;;;;;;;;;4142275;28;20049;-40
2023/02/10 05:01:19;;;;;;;0.70;0.10;;;;;;;;;;4144871;28;20054;-40
2023/02/10 05:03:20;;;;;;;0.13;0.10;;;;;;;;;;4147214;28;20556;-40
2023/02/10 05:05:24;;;;;;;2.17;0.25;;;;;;;;;;4149397;28;20053;-40
2023/02/10 05:07:26;;;;;;;1.05;0.25;;;;;;;;;;4149544;28;20092;-40
2023/02/10 05:09:27;;;;;;;0.60;0.10;;;;;;;;;;4149051;28;20100;-40
2023/02/10 05:11:28;;;;;;;1.17;0.10;;;;;;;;;;4149616;28;20107;-40
2023/02/10 05:13:29;;;;;;;0.50;0.20;;;;;;;;;;4149100;28;20054;-40
2023/02/10 05:15:31;;;;;;;0.68;0.10;;;;;;;;;;4149561;28;20050;-40
2023/02/10 05:17:32;;;;;;;1.92;0.30;;;;;;;;;;4149007;28;20056;-40
2023/02/10 05:19:34;;;;;;;0.05;0.05;;;;;;;;;;4148888;28;20049;-38
2023/02/10 05:21:36;;;;;;;1.25;0.28;;;;;;;;;;4149317;28;20053;-40
2023/02/10 05:23:39;;;;;;;0.90;0.20;;;;;;;;;;4132137;28;20070;-40
2023/02/10 05:25:41;;;;;;;0.45;0.10;;;;;;;;;;4149209;28;20057;-40
2023/02/10 05:27:42;;;;;;;0.55;0.10;;;;;;;;;;4149163;28;20057;-40
2023/02/10 05:29:43;;;;;;;1.77;0.52;;;;;;;;;;4149332;28;20100;-41
2023/02/10 05:31:45;;;;;;;0.43;0.17;;;;;;;;;;4149365;28;20061;-40
2023/02/10 05:33:46;;;;;;;1.45;0.10;;;;;;;;;;4148441;28;20108;-38
2023/02/10 05:35:47;;;;;;;0.82;0.20;;;;;;;;;;4148953;28;20053;-40
2023/02/10 05:37:49;;;;;;;1.63;0.13;;;;;;;;;;4149095;28;20057;-40
2023/02/10 05:39:50;;;;;;;1.75;0.17;;;;;;;;;;4148947;28;20488;-39
2023/02/10 05:41:53;;;;;;;0.10;0.10;;;;;;;;;;4148872;28;20497;-41
2023/02/10 05:43:55;;;;;;;0.65;0.20;;;;;;;;;;4131499;28;20116;-40
2023/02/10 05:45:56;;;;;;;0.43;0.10;;;;;;;;;;4131385;28;20051;-39
2023/02/10 05:47:57;;;;;;;0.30;0.20;;;;;;;;;;4122916;28;20073;-40
2023/02/10 05:49:58;;;;;;;0.10;0.10;;;;;;;;;;4144060;28;20555;-40
2023/02/10 05:51:59;;;;;;;0.70;0.10;;;;;;;;;;4131375;28;20096;-40
2023/02/10 05:54:00;;;;;;;1.85;0.10;;;;;;;;;;4149063;28;20053;-41
2023/02/10 05:56:01;;;;;;;0.70;0.10;;;;;;;;;;4131597;28;20112;-41
2023/02/10 05:58:03;;;;;;;0.40;0.10;;;;;;;;;;4148847;28;20054;-40
2023/02/10 06:00:06;;;;;;;2.90;0.50;;;;;;;;;;4148433;28;20112;-40
2023/02/10 06:02:13;;;;;;;0.65;0.45;;;;;;;;;;4146108;28;20054;-40
2023/02/10 06:04:14;;;;;;;1.30;0.20;;;;;;;;;;4128702;28;20061;-41
2023/02/10 06:06:16;;;;;;;0.77;0.20;;;;;;;;;;4146526;28;20482;-42
2023/02/10 06:08:17;;;;;;;0.52;0.20;;;;;;;;;;4146161;28;20543;-41
2023/02/10 06:10:19;;;;;;;1.48;0.20;;;;;;;;;;4146450;28;20069;-40
2023/02/10 06:12:20;;;;;;;0.65;0.32;;;;;;;;;;4145983;28;20057;-43
2023/02/10 06:14:22;;;;;;;1.92;0.30;;;;;;;;;;4146266;28;20061;-42
2023/02/10 06:16:23;;;;;;;0.63;0.20;;;;;;;;;;4146612;28;20069;-39
2023/02/10 06:18:25;;;;;;;1.67;0.30;;;;;;;;;;4145777;28;20066;-43
2023/02/10 06:20:26;;;;;;;2.20;0.52;;;;;;;;;;4146543;28;20108;-40
2023/02/10 06:22:27;;;;;;;1.00;0.15;;;;;;;;;;4146448;28;20472;-40
2023/02/10 06:24:28;;;;;;;1.25;0.20;;;;;;;;;;4146297;28;20129;-41
2023/02/10 06:26:29;;;;;;;3.75;0.25;;;;;;;;;;4146301;28;20068;-40
2023/02/10 06:28:30;;;;;;;1.20;0.20;;;;;;;;;;4138170;28;20061;-42
2023/02/10 06:30:32;;;;;;;3.90;0.50;;;;;;;;;;4146302;28;20076;-42
2023/02/10 06:32:33;;;;;;;0.65;0.30;;;;;;;;;;4146277;28;20057;-41
2023/02/10 06:34:35;;;;;;;1.05;0.20;;;;;;;;;;4145395;28;20046;-42
2023/02/10 06:36:36;;;;;;;2.15;0.20;;;;;;;;;;4145838;28;20061;-40
2023/02/10 06:38:37;;;;;;;2.42;0.30;;;;;;;;;;4146046;28;20505;-42
2023/02/10 06:40:39;;;;;;;1.58;0.35;;;;;;;;;;4146017;28;20508;-41
2023/02/10 06:42:40;;;;;;;0.10;0.10;;;;;;;;;;4146471;28;20101;-43
2023/02/10 06:44:41;;;;;;;1.10;0.10;;;;;;;;;;4145560;28;20656;-42
2023/02/10 06:46:43;;;;;;;0.73;0.20;;;;;;;;;;4146112;28;20107;-42
2023/02/10 06:48:44;;;;;;;0.95;0.30;;;;;;;;;;4145214;28;20061;-41
2023/02/10 06:50:45;;;;;;;1.08;0.38;;;;;;;;;;4145987;28;20221;-40
2023/02/10 06:52:48;;;;;;;1.17;0.20;;;;;;;;;;4145526;28;20071;-41
2023/02/10 06:54:49;;;;;;;1.10;0.30;;;;;;;;;;4145752;28;20049;-41
2023/02/10 06:56:50;;;;;;;0.40;0.10;;;;;;;;;;4128218;28;20058;-41
2023/02/10 06:58:52;;;;;;;0.95;0.30;;;;;;;;;;4145812;28;20465;-41
2023/02/10 07:00:53;;;;;;;2.90;0.43;;;;;;;;;;4145162;28;20062;-41
2023/02/10 07:02:55;;;;;;;0.50;0.20;;;;;;;;;;4128265;28;20358;-41
2023/02/10 07:04:56;;;;;;;1.63;0.20;;;;;;;;;;4127801;28;20577;-41
2023/02/10 07:06:57;;;;;;;0.75;0.30;;;;;;;;;;4145571;28;20454;-42
2023/02/10 07:08:59;;;;;;;0.57;0.20;;;;;;;;;;4111807;28;20158;-45
2023/02/10 07:11:00;;;;;;;1.83;0.20;;;;;;;;;;4132659;28;20556;-41
2023/02/10 07:13:01;;;;;;;1.50;0.10;;;;;;;;;;4127398;28;20136;-42
2023/02/10 07:15:04;;;;;;;0.63;0.20;;;;;;;;;;4121124;28;20081;-41
2023/02/10 07:17:06;;;;;;;0.75;0.20;;;;;;;;;;4145662;28;20104;-42
2023/02/10 07:19:07;;;;;;;2.00;0.30;;;;;;;;;;4144764;28;20084;-41
2023/02/10 07:21:09;;;;;;;2.80;0.45;;;;;;;;;;4145492;28;20058;-41
2023/02/10 07:23:10;;;;;;;1.75;0.30;;;;;;;;;;4144520;28;20116;-41
2023/02/10 07:25:12;;;;;;;0.65;0.13;;;;;;;;;;4142838;28;20050;-41
2023/02/10 07:27:13;;;;;;;5.80;0.50;;;;;;;;;;4116690;28;20446;-42
2023/02/10 07:29:15;;;;;;;1.08;0.47;;;;;;;;;;4137001;28;20450;-42
2023/02/10 07:31:16;;;;;;;2.72;0.52;;;;;;;;;;4140408;28;20060;-41
2023/02/10 07:33:17;;;;;;;6.43;0.40;;;;;;;;;;4142776;28;20108;-41
2023/02/10 07:35:19;;;;;;;0.90;0.30;;;;;;;;;;4136250;28;20056;-41
2023/02/10 07:37:20;;;;;;;1.60;0.22;;;;;;;;;;4107254;28;20788;-40
2023/02/10 07:39:22;;;;;;;1.58;0.52;;;;;;;;;;4123756;28;20061;-44
2023/02/10 07:41:24;;;;;;;2.08;0.30;;;;;;;;;;4133107;28;20058;-42
2023/02/10 07:43:25;;;;;;;1.48;0.40;;;;;;;;;;4132975;28;20053;-42
2023/02/10 07:45:36;;;;;;;2.60;0.85;;;;;;;;;;4121235;28;20073;-42
2023/02/10 07:47:38;;;;;;;1.15;0.38;;;;;;;;;;4137865;28;20053;-42
2023/02/10 07:49:39;;;;;;;3.33;0.35;;;;;;;;;;4132494;28;20394;-45
2023/02/10 07:51:42;;;;;;;1.55;0.60;;;;;;;;;;4125867;28;20054;-42
2023/02/10 07:53:43;;;;;;;2.20;0.35;;;;;;;;;;4136343;28;20579;-40
2023/02/10 07:55:44;;;;;;;3.85;0.38;;;;;;;;;;4135281;28;20469;-41
2023/02/10 07:57:46;;;;;;;3.33;0.52;;;;;;;;;;4135845;28;20054;-42
2023/02/10 07:59:48;;;;;;;1.80;0.40;;;;;;;;;;4134492;28;20054;-43
2023/02/10 08:01:49;;;;;;;1.35;0.43;;;;;;;;;;4132843;28;21347;-43
2023/02/10 08:03:50;;;;;;;2.35;0.32;;;;;;;;;;4127084;28;20604;-44
2023/02/10 08:05:52;;;;;;;0.75;0.38;;;;;;;;;;4129791;28;20060;-45
2023/02/10 08:07:54;;;;;;;4.13;0.50;;;;;;;;;;4134006;28;20058;-43
2023/02/10 08:09:55;;;;;;;0.82;0.30;;;;;;;;;;4134639;28;20152;-44
2023/02/10 08:11:56;;;;;;;1.20;0.55;;;;;;;;;;4133599;28;20461;-44
2023/02/10 08:13:57;;;;;;;0.90;0.20;;;;;;;;;;4131896;28;20130;-43
2023/02/10 08:15:58;;;;;;;2.13;0.70;;;;;;;;;;4130427;28;20053;-43
2023/02/10 08:18:01;;;;;;;0.22;0.20;;;;;;;;;;4110864;28;20053;-44
2023/02/10 08:20:02;;;;;;;0.65;0.30;;;;;;;;;;4122497;28;20425;-46
2023/02/10 08:22:04;;;;;;;1.27;0.47;;;;;;;;;;4128551;28;20112;-43
2023/02/10 08:24:05;;;;;;;1.30;0.50;;;;;;;;;;4131812;28;20088;-46
2023/02/10 08:26:09;;;;;;;1.35;0.30;;;;;;;;;;4116835;28;20081;-45
2023/02/10 08:28:11;;;;;;;1.48;0.30;;;;;;;;;;4124812;28;20116;-43
2023/02/10 08:30:12;;;;;;;2.28;0.30;;;;;;;;;;4126257;28;20054;-42
2023/02/10 08:32:18;;;;;;;0.82;0.22;;;;;;;;;;4131037;28;20153;-44
2023/02/10 08:34:20;;;;;;;1.20;0.28;;;;;;;;;;4129155;28;20116;-43
2023/02/10 08:36:21;;;;;;;2.35;0.30;;;;;;;;;;4131234;28;20057;-44
2023/02/10 08:38:23;;;;;;;1.58;0.40;;;;;;;;;;4112971;28;20132;-44
2023/02/10 08:40:24;;;;;;;1.15;0.30;;;;;;;;;;4136068;28;20505;-43
2023/02/10 08:42:26;;;;;;;1.10;0.35;;;;;;;;;;4132947;28;20054;-42
2023/02/10 08:44:27;;;;;;;1.67;0.35;;;;;;;;;;4128027;28;21207;-42
2023/02/10 08:46:28;;;;;;;2.00;0.30;;;;;;;;;;4133980;28;20100;-43
2023/02/10 08:48:30;;;;;;;0.90;0.40;;;;;;;;;;4130247;28;21431;-42
2023/02/10 08:50:31;;;;;;;3.85;0.80;;;;;;;;;;4131627;28;20112;-42
2023/02/10 08:52:33;;;;;;;2.03;0.50;;;;;;;;;;4135474;28;20108;-42
2023/02/10 08:54:35;;;;;;;3.65;0.47;;;;;;;;;;4113177;28;20112;-46
2023/02/10 08:56:36;;;;;;;3.17;0.55;;;;;;;;;;4132289;28;20437;-41
2023/02/10 08:58:38;;;;;;;2.03;0.68;;;;;;;;;;4125783;28;20058;-45
2023/02/10 09:00:39;;;;;;;2.80;1.08;;;;;;;;;;4121664;28;20485;-42
2023/02/10 09:02:40;;;;;;;0.90;0.30;;;;;;;;;;4131291;28;20080;-43
2023/02/10 09:04:41;;;;;;;4.10;0.60;;;;;;;;;;4128787;28;20049;-42
2023/02/10 09:06:43;;;;;;;1.35;0.50;;;;;;;;;;4128111;28;20068;-42
2023/02/10 09:08:47;;;;;;;3.67;0.73;;;;;;;;;;4129678;28;20060;-41
2023/02/10 09:10:49;;;;;;;2.10;0.57;;;;;;;;;;4110850;28;20096;-42
2023/02/10 09:12:51;;;;;;;1.50;0.50;;;;;;;;;;4129592;28;20070;-41
2023/02/10 09:14:52;;;;;;;3.22;0.50;;;;;;;;;;4098547;28;20415;-41
2023/02/10 09:16:53;;;;;;;3.22;0.70;;;;;;;;;;4117180;28;20054;-42
2023/02/10 09:18:54;;;;;;;1.50;0.52;;;;;;;;;;4116356;28;20093;-42
2023/02/10 09:20:57;;;;;;;6.88;0.43;;;;;;;;;;4120074;28;20057;-42
2023/02/10 09:22:58;;;;;;;3.10;0.47;;;;;;;;;;4117336;28;20501;-41
2023/02/10 09:25:00;;;;;;;1.45;0.40;;;;;;;;;;4115672;28;20674;-45
2023/02/10 09:27:01;;;;;;;0.40;0.30;;;;;;;;;;4117197;28;20112;-44
2023/02/10 09:29:03;;;;;;;3.80;0.60;;;;;;;;;;4113982;28;20062;-44
2023/02/10 09:31:05;;;;;;;1.00;0.38;;;;;;;;;;4115056;28;20105;-42
2023/02/10 09:33:06;;;;;;;2.53;0.90;;;;;;;;;;4117389;28;20514;-44
2023/02/10 09:35:08;;;;;;;1.23;0.40;;;;;;;;;;4113561;28;20104;-44
2023/02/10 09:37:09;;;;;;;4.40;0.40;;;;;;;;;;4089642;28;20084;-44
2023/02/10 09:39:11;;;;;;;2.00;0.60;;;;;;;;;;4116528;28;20046;-43
2023/02/10 09:41:34;;;;;;;1.38;0.52;;;;;;;;;;4115496;28;20058;-42
2023/02/10 09:44:16;;;;;;;1.98;0.50;;;;;;;;;;4115333;28;20141;-45
2023/02/10 09:46:36;;;;;;;1.08;0.50;;;;;;;;;;4087318;28;20582;-42
2023/02/10 09:48:55;;;;;;;1.85;0.40;;;;;;;;;;4111074;28;20125;-43
2023/02/10 09:51:20;;;;;;;1.50;0.50;;;;;;;;;;4117662;28;20093;-43
2023/02/10 09:53:25;;;;;;;1.30;0.60;;;;;;;;;;4102082;28;20101;-43
2023/02/10 09:55:30;;;;;;;1.88;0.50;;;;;;;;;;4118470;28;20341;-41
2023/02/10 09:57:42;;;;;;;0.90;0.32;;;;;;;;;;4101056;28;20074;-42
2023/02/10 09:59:45;;;;;;;1.08;0.45;;;;;;;;;;4116446;28;20054;-41
2023/02/10 10:01:52;;;;;;;1.42;0.30;;;;;;;;;;4117379;28;20105;-43
2023/02/10 10:04:10;;;;;;;0.93;0.43;;;;;;;;;;4119918;28;20054;-41
2023/02/10 10:06:17;;;;;;;1.13;0.32;;;;;;;;;;4099408;28;20054;-44
2023/02/10 10:08:39;;;;;;;3.25;0.68;;;;;;;;;;4108502;28;20054;-42
2023/02/10 10:10:45;;;;;;;3.75;0.68;;;;;;;;;;4112669;28;21059;-43
2023/02/10 10:12:46;;;;;;;1.13;0.30;;;;;;;;;;4116980;28;20054;-46
2023/02/10 10:14:49;;;;;;;0.80;0.40;;;;;;;;;;4116019;28;20495;-43
2023/02/10 10:17:13;;;;;;;0.68;0.50;;;;;;;;;;4128913;28;20537;-41
2023/02/10 10:19:28;;;;;;;2.72;0.55;;;;;;;;;;4120920;28;20096;-43
2023/02/10 10:21:47;;;;;;;1.67;0.63;;;;;;;;;;4135932;28;20061;-43
2023/02/10 10:23:48;;;;;;;;;;;;;;;;;;4136071;28;20081;-42
2023/02/10 10:25:50;;;;;;;1.35;0.35;;;;;;;;;;4134858;28;19936;-43
2023/02/10 10:28:04;;;;;;;1.77;0.50;;;;;;;;;;4135716;28;20422;-44
2023/02/10 10:30:19;;;;;;;1.67;0.40;;;;;;;;;;4119986;28;20058;-42
2023/02/10 10:32:41;;;;;;;0.65;0.30;;;;;;;;;;4133677;28;21347;-44
2023/02/10 10:34:54;;;;;;;1.70;0.77;;;;;;;;;;4113195;28;20104;-43
2023/02/10 10:36:56;;;;;;;1.08;0.50;;;;;;;;;;4133741;28;20421;-41
2023/02/10 10:39:01;;;;;;;1.55;0.57;;;;;;;;;;4133170;28;21413;-41
2023/02/10 10:41:10;;;;;;;1.10;0.25;;;;;;;;;;4116275;28;20113;-43
2023/02/10 10:43:17;;;;;;;2.53;0.45;;;;;;;;;;4114513;28;20556;-45
2023/02/10 10:45:23;;;;;;;0.52;0.40;;;;;;;;;;4112156;28;20098;-45
2023/02/10 10:47:44;;;;;;;0.70;0.45;;;;;;;;;;4119037;28;20390;-43
2023/02/10 10:49:45;;;;;;;0.40;0.30;;;;;;;;;;4129184;28;20107;-41
2023/02/10 10:51:48;;;;;;;1.60;0.43;;;;;;;;;;4139642;28;20061;-42
2023/02/10 10:53:51;;;;;;;1.13;0.35;;;;;;;;;;4121292;28;20161;-40
2023/02/10 10:55:54;;;;;;;2.58;0.40;;;;;;;;;;4123085;28;20109;-41
2023/02/10 10:57:56;;;;;;;0.90;0.40;;;;;;;;;;4134828;28;20066;-43
2023/02/10 11:00:28;;;;;;;2.05;0.63;;;;;;;;;;4121522;28;20775;-42
2023/02/10 11:02:30;;;;;;;0.60;0.35;;;;;;;;;;4128002;28;20050;-41
2023/02/10 11:04:33;;;;;;;1.70;0.50;;;;;;;;;;4137577;28;20057;-41
2023/02/10 11:06:36;;;;;;;0.90;0.38;;;;;;;;;;4135224;28;20056;-41
2023/02/10 11:08:44;;;;;;;0.85;0.22;;;;;;;;;;4120403;28;20062;-40
2023/02/10 11:10:53;;;;;;;0.90;0.40;;;;;;;;;;4123582;28;20115;-41
2023/02/10 11:12:55;;;;;;;0.47;0.30;;;;;;;;;;4122034;28;20484;-44
2023/02/10 11:14:57;;;;;;;1.38;0.40;;;;;;;;;;4119343;28;20069;-41
2023/02/10 11:17:02;;;;;;;0.93;0.30;;;;;;;;;;4121220;28;20069;-41
2023/02/10 11:19:03;;;;;;;1.08;0.50;;;;;;;;;;4139326;28;20062;-42
2023/02/10 11:21:08;;;;;;;0.60;0.43;;;;;;;;;;4119851;28;20552;-45
2023/02/10 11:23:14;;;;;;;1.23;0.57;;;;;;;;;;4120185;28;20092;-40
2023/02/10 11:25:25;;;;;;;0.88;0.30;;;;;;;;;;4139170;28;20057;-42
2023/02/10 11:27:27;;;;;;;0.45;0.40;;;;;;;;;;4140507;28;20057;-41
2023/02/10 11:29:31;;;;;;;0.20;0.20;;;;;;;;;;4134784;28;20062;-45
2023/02/10 11:31:34;;;;;;;0.73;0.20;;;;;;;;;;4135628;28;20107;-41
2023/02/10 11:33:36;;;;;;;0.57;0.28;;;;;;;;;;4130050;28;20092;-42
2023/02/10 11:35:37;;;;;;;0.93;0.30;;;;;;;;;;4133654;28;20069;-42
2023/02/10 11:37:39;;;;;;;1.75;0.73;;;;;;;;;;4118487;28;20083;-42
2023/02/10 11:39:44;;;;;;;2.00;0.30;;;;;;;;;;4121977;28;20058;-41
2023/02/10 11:41:45;;;;;;;1.25;0.40;;;;;;;;;;4112314;28;20062;-44
2023/02/10 11:43:47;;;;;;;0.50;0.30;;;;;;;;;;4134965;28;20054;-43
2023/02/10 11:45:55;;;;;;;1.48;0.45;;;;;;;;;;4133718;28;20076;-43
2023/02/10 11:48:18;;;;;;;1.20;0.43;;;;;;;;;;4132536;28;20057;-42
2023/02/10 11:50:23;;;;;;;2.63;0.50;;;;;;;;;;4130635;28;20053;-42
2023/02/10 11:52:29;;;;;;;0.60;0.20;;;;;;;;;;4130817;28;20049;-42
2023/02/10 11:54:31;;;;;;;1.85;0.55;;;;;;;;;;4131503;28;20108;-42
2023/02/10 11:59:19;;;;;;;2.30;0.30;;;;;;;;;;4124551;28;20062;-42
2023/02/10 12:01:39;;;;;;;0.95;0.45;;;;;;;;;;4108828;28;20048;-43
2023/02/10 12:03:57;;;;;;;1.35;0.30;;;;;;;;;;4131547;28;20181;-42
2023/02/10 12:06:18;;;;;;;1.65;0.60;;;;;;;;;;4113871;28;20076;-43
2023/02/10 12:08:31;;;;;;;1.77;0.50;;;;;;;;;;4093923;28;20054;-45
2023/02/10 12:10:41;;;;;;;0.52;0.28;;;;;;;;;;4099552;28;20062;-46
2023/02/10 12:12:56;;;;;;;1.02;0.40;;;;;;;;;;4129717;28;20066;-45
2023/02/10 12:15:34;;;;;;;1.13;0.40;;;;;;;;;;4129765;28;20054;-43
2023/02/10 12:17:41;;;;;;;2.30;0.73;;;;;;;;;;4133431;28;20056;-45
2023/02/10 12:19:47;;;;;;;0.95;0.40;;;;;;;;;;4106897;28;20054;-45
2023/02/10 12:22:16;;;;;;;0.77;0.38;;;;;;;;;;4131533;28;20076;-43
2023/02/10 12:24:36;;;;;;;0.37;0.13;;;;;;;;;;4113434;28;20054;-44
2023/02/10 12:26:52;;;;;;;0.95;0.32;;;;;;;;;;4113710;28;20480;-44
2023/02/10 12:29:28;;;;;;;2.33;0.50;;;;;;;;;;4131473;28;20109;-42